Oak Bay, Canada
Current Conditions -  °F | °C
As of 10:00 AM on Sunday 25 Jan 2015 (Local Time) from CYWH Reporting Station
Overcast Overcast  
Wind Chill: 52°   Ceiling: 300
Heat Index: 52°   Visibility: 10mi
Dew Point: 50°   Wind: 3mph
Humidity: 94%   Direction: 20°NNE
Pressure: 30.15"   Gusts: NA
Location:  48.43°N, 123.32°W
Report Text: CYWH 251800Z 02003KT 10SM BKN003 OVC015 11/10 A3015 RMK SF5SC3SLP211
Loading
Personal Weather Stations






























Interactive Weather Map New forecast layout! Learn more

10-Day Weather Forecast

Advertisements
Track Severe Weather on mobile